createdAt,value
2023-01-31T00:01:36.320Z,97694.00
2023-01-31T00:04:06.502Z,97685.00
2023-01-31T00:06:41.904Z,97685.88
2023-01-31T00:09:10.764Z,97689.34
2023-01-31T00:11:37.740Z,97688.19
2023-01-31T00:14:06.962Z,97697.63
2023-01-31T00:16:35.042Z,97698.66
2023-01-31T00:19:02.579Z,97700.00
2023-01-31T00:21:31.421Z,97703.31
2023-01-31T00:23:59.130Z,97712.81
2023-01-31T00:26:31.496Z,97708.97
2023-01-31T00:29:00.124Z,97708.63
2023-01-31T00:31:28.971Z,97714.78
2023-01-31T00:33:57.505Z,97719.59
2023-01-31T00:36:31.285Z,97701.97
2023-01-31T00:39:01.490Z,97726.25
2023-01-31T00:41:30.021Z,97716.59
2023-01-31T00:43:57.856Z,97720.09
2023-01-31T00:46:25.462Z,97730.41
2023-01-31T00:48:53.101Z,97723.13
2023-01-31T00:51:20.695Z,97719.63
2023-01-31T00:53:48.140Z,97727.59
2023-01-31T00:56:20.686Z,97732.59
2023-01-31T00:58:47.588Z,97734.63
2023-01-31T01:01:19.281Z,97743.41
2023-01-31T01:03:46.662Z,97745.13
2023-01-31T01:06:14.609Z,97736.94
2023-01-31T01:08:42.445Z,97737.97
2023-01-31T01:11:24.663Z,97746.94
2023-01-31T01:13:52.537Z,97752.06
2023-01-31T01:16:22.664Z,97759.91
2023-01-31T01:18:50.528Z,97769.91
2023-01-31T01:21:20.419Z,97778.38
2023-01-31T01:23:48.138Z,97767.06
2023-01-31T01:26:24.665Z,97774.25
2023-01-31T01:28:52.560Z,97768.44
2023-01-31T01:31:21.261Z,97768.75
2023-01-31T01:33:49.683Z,97769.59
2023-01-31T01:36:22.374Z,97776.59
2023-01-31T01:38:49.830Z,97768.59
2023-01-31T01:41:17.381Z,97782.91
2023-01-31T01:43:50.069Z,97780.25
2023-01-31T01:46:19.357Z,97781.44
2023-01-31T01:48:51.422Z,97788.09
2023-01-31T01:51:20.118Z,97787.94
2023-01-31T01:53:50.878Z,97786.97
2023-01-31T01:56:24.005Z,97793.28
2023-01-31T01:59:36.048Z,97778.28
2023-01-31T02:02:04.357Z,97798.94
2023-01-31T02:04:36.487Z,97800.13
2023-01-31T02:07:21.789Z,97793.63
2023-01-31T02:10:17.270Z,97804.94
2023-01-31T02:13:06.596Z,97795.97
2023-01-31T02:15:55.392Z,97808.97
2023-01-31T02:18:37.901Z,97794.81
2023-01-31T02:21:53.642Z,97791.84
2023-01-31T02:24:43.469Z,97802.34
2023-01-31T02:27:33.120Z,97824.00
2023-01-31T02:30:14.223Z,97813.00
2023-01-31T02:33:20.957Z,97813.81
2023-01-31T02:35:55.483Z,97825.13
2023-01-31T02:38:31.179Z,97827.13
2023-01-31T02:41:21.622Z,97833.44
2023-01-31T02:44:25.936Z,97841.25
2023-01-31T02:47:18.263Z,97843.41
2023-01-31T02:50:05.975Z,97838.06
2023-01-31T02:52:53.360Z,97861.06
2023-01-31T02:55:50.913Z,97862.38
2023-01-31T02:58:21.193Z,97853.56
2023-01-31T03:00:49.898Z,97873.50
2023-01-31T03:03:24.976Z,97879.34
2023-01-31T03:06:23.917Z,97886.47
2023-01-31T03:09:25.997Z,97878.13
2023-01-31T03:11:58.590Z,97880.44
2023-01-31T03:14:50.824Z,97886.59
2023-01-31T03:17:33.245Z,97887.44
2023-01-31T03:20:21.515Z,97897.75
2023-01-31T03:23:02.254Z,97893.91
2023-01-31T03:25:35.057Z,97900.72
2023-01-31T03:28:06.676Z,97913.34
2023-01-31T03:30:50.145Z,97921.53
2023-01-31T03:33:23.556Z,97928.06
2023-01-31T03:35:59.562Z,97928.16
2023-01-31T03:38:32.507Z,97934.66
2023-01-31T03:41:11.542Z,97941.69
2023-01-31T03:43:51.152Z,97947.78
2023-01-31T03:46:25.863Z,97946.63
2023-01-31T03:48:56.801Z,97948.75
2023-01-31T03:51:29.357Z,97948.94
2023-01-31T03:54:04.232Z,97949.91
2023-01-31T03:56:35.940Z,97947.97
2023-01-31T03:59:15.375Z,97923.69
2023-01-31T04:01:48.966Z,97952.44
2023-01-31T04:04:21.366Z,97933.28
2023-01-31T04:06:48.520Z,97961.09
2023-01-31T04:09:16.528Z,97925.63
2023-01-31T04:11:48.682Z,97982.38
2023-01-31T04:14:16.423Z,97984.56
2023-01-31T04:16:43.432Z,97951.63
2023-01-31T04:19:10.787Z,97994.38
2023-01-31T04:21:37.736Z,98003.88
2023-01-31T04:24:04.806Z,98009.13
2023-01-31T04:26:32.142Z,97951.38
2023-01-31T04:28:59.173Z,97979.78
2023-01-31T04:31:26.284Z,97964.28
2023-01-31T04:33:53.266Z,98024.25
2023-01-31T04:36:20.218Z,97978.47
2023-01-31T04:38:47.203Z,97996.03
2023-01-31T04:41:14.149Z,98011.16
2023-01-31T04:43:41.034Z,97984.94
2023-01-31T04:46:08.295Z,98025.72
2023-01-31T04:48:35.699Z,97993.09
2023-01-31T04:51:02.639Z,98002.28
2023-01-31T04:53:29.559Z,98051.91
2023-01-31T04:55:56.832Z,97997.16
2023-01-31T04:58:24.027Z,98059.09
2023-01-31T05:00:51.073Z,98047.53
2023-01-31T05:03:18.068Z,98015.38
2023-01-31T05:05:45.114Z,98013.38
2023-01-31T05:08:12.065Z,98005.28
2023-01-31T05:10:39.062Z,98059.66
2023-01-31T05:13:06.181Z,98050.97
2023-01-31T05:15:33.172Z,98005.28
2023-01-31T05:18:03.527Z,98014.03
2023-01-31T05:20:36.836Z,98036.75
2023-01-31T05:23:04.170Z,98010.16
2023-01-31T05:25:31.628Z,98069.53
2023-01-31T05:27:59.105Z,98051.69
2023-01-31T05:30:26.439Z,98075.78
2023-01-31T05:32:53.646Z,98030.59
2023-01-31T05:35:21.436Z,98040.94
2023-01-31T05:37:48.655Z,98069.94
2023-01-31T05:40:17.554Z,98059.03
2023-01-31T05:42:44.836Z,98055.09
2023-01-31T05:45:12.761Z,98084.38
2023-01-31T05:47:39.779Z,98066.44
2023-01-31T05:50:07.058Z,98072.53
2023-01-31T05:52:34.034Z,98090.53
2023-01-31T05:55:00.920Z,98064.03
2023-01-31T05:57:28.840Z,98088.72
2023-01-31T05:59:55.816Z,98060.59
2023-01-31T06:02:23.082Z,98045.25
2023-01-31T06:04:50.134Z,98114.84
2023-01-31T06:07:17.028Z,98067.09
2023-01-31T06:09:44.063Z,98119.03
2023-01-31T06:12:14.831Z,98101.22
2023-01-31T06:14:41.954Z,98106.53
2023-01-31T06:17:09.024Z,98112.84
2023-01-31T06:19:35.942Z,98141.97
2023-01-31T06:22:02.910Z,98116.63
2023-01-31T06:24:29.820Z,98113.28
2023-01-31T06:26:56.979Z,98124.19
2023-01-31T06:29:23.923Z,98140.69
2023-01-31T06:31:50.976Z,98143.19
2023-01-31T06:34:18.072Z,98142.34
2023-01-31T06:36:44.954Z,98173.63
2023-01-31T06:39:15.544Z,98189.69
2023-01-31T06:41:42.512Z,98191.28
2023-01-31T06:44:09.643Z,98199.34
2023-01-31T06:46:36.852Z,98150.09
2023-01-31T06:49:03.843Z,98177.31
2023-01-31T06:51:31.572Z,98216.16
2023-01-31T06:53:58.644Z,98217.56
2023-01-31T06:56:25.566Z,98219.47
2023-01-31T06:58:52.499Z,98215.19
2023-01-31T07:01:19.507Z,98164.69
2023-01-31T07:03:46.464Z,98197.47
2023-01-31T07:06:14.022Z,98211.13
2023-01-31T07:08:41.061Z,98253.59
2023-01-31T07:11:08.032Z,98254.59
2023-01-31T07:13:35.037Z,98255.28
2023-01-31T07:16:01.996Z,98194.13
2023-01-31T07:18:30.126Z,98261.31
2023-01-31T07:20:57.138Z,98250.38
2023-01-31T07:23:24.215Z,98223.19
2023-01-31T07:25:51.111Z,98226.78
2023-01-31T07:28:18.048Z,98234.72
2023-01-31T07:30:46.515Z,98239.34
2023-01-31T07:33:13.746Z,98253.84
2023-01-31T07:35:42.995Z,98238.78
2023-01-31T07:38:11.333Z,98264.22
2023-01-31T07:40:40.295Z,98222.88
2023-01-31T07:43:07.259Z,98248.28
2023-01-31T07:45:34.349Z,98275.63
2023-01-31T07:48:01.587Z,98266.78
2023-01-31T07:50:28.616Z,98279.56
2023-01-31T07:52:58.104Z,98256.97
2023-01-31T07:55:25.766Z,98282.94
2023-01-31T07:57:52.721Z,98252.06
2023-01-31T08:00:38.586Z,98281.91
2023-01-31T08:03:23.843Z,98258.75
2023-01-31T08:05:50.944Z,98261.25
2023-01-31T08:08:17.954Z,98264.63
2023-01-31T08:10:47.436Z,98290.44
2023-01-31T08:13:14.467Z,98302.31
2023-01-31T08:15:41.414Z,98287.91
2023-01-31T08:18:08.384Z,98301.06
2023-01-31T08:20:37.911Z,98286.25
2023-01-31T08:23:04.995Z,98315.72
2023-01-31T08:25:32.318Z,98325.94
2023-01-31T08:28:00.507Z,98318.25
2023-01-31T08:30:29.498Z,98318.97
2023-01-31T08:32:57.026Z,98329.16
2023-01-31T08:35:26.178Z,98310.03
2023-01-31T08:37:56.708Z,98342.16
2023-01-31T08:40:25.939Z,98317.03
2023-01-31T08:42:57.321Z,98347.53
2023-01-31T08:45:25.503Z,98345.56
2023-01-31T08:47:57.467Z,98357.72
2023-01-31T08:50:28.108Z,98326.75
2023-01-31T08:52:56.813Z,98364.34
2023-01-31T08:55:24.769Z,98369.94
2023-01-31T08:57:59.784Z,98336.38
2023-01-31T09:00:27.741Z,98351.19
2023-01-31T09:03:02.157Z,98303.50
2023-01-31T09:05:31.109Z,98311.84
2023-01-31T09:07:58.131Z,98304.81
2023-01-31T09:10:25.173Z,98380.09
2023-01-31T09:12:52.206Z,98376.75
2023-01-31T09:15:19.582Z,98385.03
2023-01-31T09:17:46.722Z,98313.56
2023-01-31T09:20:13.682Z,98304.38
2023-01-31T09:22:40.744Z,98374.09
2023-01-31T09:25:08.444Z,98378.78
2023-01-31T09:27:38.135Z,98348.91
2023-01-31T09:30:07.301Z,98385.66
2023-01-31T09:32:34.345Z,98351.13
2023-01-31T09:35:01.384Z,98353.34
2023-01-31T09:37:31.336Z,98350.41
2023-01-31T09:39:58.662Z,98339.88
2023-01-31T09:42:34.057Z,98327.00
2023-01-31T09:45:22.329Z,98368.22
2023-01-31T09:47:52.953Z,98377.25
2023-01-31T09:50:40.750Z,98336.31
2023-01-31T09:53:13.972Z,98371.63
2023-01-31T09:56:01.601Z,98366.22
2023-01-31T09:58:42.764Z,98385.94
2023-01-31T10:01:24.305Z,98393.91
2023-01-31T10:04:09.488Z,98341.91
2023-01-31T10:06:54.446Z,98390.72
2023-01-31T10:09:29.759Z,98394.13
2023-01-31T10:12:11.421Z,98358.91
2023-01-31T10:14:56.300Z,98387.81
2023-01-31T10:17:23.185Z,98397.03
2023-01-31T10:19:56.223Z,98395.06
2023-01-31T10:22:39.459Z,98398.63
2023-01-31T10:25:58.758Z,98384.81
2023-01-31T10:28:56.858Z,98371.09
2023-01-31T10:31:36.174Z,98385.69
2023-01-31T10:34:06.245Z,98386.31
2023-01-31T10:36:54.205Z,98386.66
2023-01-31T10:39:30.213Z,98367.50
2023-01-31T10:42:15.755Z,98399.66
2023-01-31T10:44:52.558Z,98339.34
2023-01-31T10:47:22.006Z,98403.25
2023-01-31T10:49:50.547Z,98402.00
2023-01-31T10:52:35.964Z,98397.84
2023-01-31T10:55:26.161Z,98393.72
2023-01-31T10:57:54.768Z,98342.44
2023-01-31T11:00:26.992Z,98328.03
2023-01-31T11:02:53.984Z,98361.16
2023-01-31T11:05:24.646Z,98351.59
2023-01-31T11:07:51.723Z,98381.81
2023-01-31T11:10:28.804Z,98365.09
2023-01-31T11:13:09.900Z,98351.69
2023-01-31T11:15:39.877Z,98377.94
2023-01-31T11:18:08.055Z,98323.13
2023-01-31T11:20:44.586Z,98339.88
2023-01-31T11:23:17.671Z,98331.25
2023-01-31T11:25:50.844Z,98329.66
2023-01-31T11:28:38.525Z,98302.47
2023-01-31T11:31:15.578Z,98329.22
2023-01-31T11:34:03.358Z,98298.38
2023-01-31T11:36:45.963Z,98341.13
2023-01-31T11:39:55.297Z,98344.75
2023-01-31T11:42:22.320Z,98313.63
2023-01-31T11:45:02.607Z,98273.59
2023-01-31T11:47:32.811Z,98351.50
2023-01-31T11:50:01.904Z,98334.16
2023-01-31T11:52:32.083Z,98170.25
2023-01-31T11:55:06.737Z,98256.38
2023-01-31T11:57:36.630Z,98324.22
2023-01-31T12:00:20.783Z,98343.34
2023-01-31T12:02:58.587Z,98278.00
2023-01-31T12:05:39.687Z,98308.63
2023-01-31T12:08:06.831Z,98311.81
2023-01-31T12:10:45.817Z,98283.59
2023-01-31T12:13:19.633Z,98310.69
2023-01-31T12:15:52.857Z,98336.72
2023-01-31T12:18:30.761Z,98315.25
2023-01-31T12:21:12.811Z,98259.50
2023-01-31T12:24:04.626Z,98307.78
2023-01-31T12:26:34.274Z,98333.38
2023-01-31T12:29:27.503Z,98321.34
2023-01-31T12:32:45.245Z,98288.00
2023-01-31T12:35:28.203Z,98258.38
2023-01-31T12:38:10.305Z,98293.16
2023-01-31T12:40:49.576Z,98310.75
2023-01-31T12:43:33.644Z,98305.25
2023-01-31T12:46:30.997Z,98315.84
2023-01-31T12:49:13.238Z,98311.81
2023-01-31T12:51:46.168Z,98307.63
2023-01-31T12:54:34.830Z,98308.84
2023-01-31T12:57:01.807Z,98307.09
2023-01-31T13:00:04.352Z,98274.22
2023-01-31T13:02:56.953Z,98291.72
2023-01-31T13:05:48.817Z,98308.75
2023-01-31T13:08:20.058Z,98247.00
2023-01-31T13:10:56.724Z,98300.38
2023-01-31T13:13:42.305Z,98250.13
2023-01-31T13:16:23.712Z,98269.56
2023-01-31T13:18:54.814Z,98274.50
2023-01-31T13:21:27.506Z,98251.69
2023-01-31T13:24:11.986Z,98273.91
2023-01-31T13:26:47.064Z,98282.34
2023-01-31T13:29:25.781Z,98227.53
2023-01-31T13:32:14.768Z,98291.09
2023-01-31T13:34:51.874Z,98288.91
2023-01-31T13:37:21.450Z,98242.09
2023-01-31T13:39:54.108Z,98244.53
2023-01-31T13:42:21.162Z,98242.38
2023-01-31T13:44:50.397Z,98241.13
2023-01-31T13:47:26.626Z,98261.47
2023-01-31T13:49:56.334Z,98277.38
2023-01-31T13:52:30.711Z,98231.19
2023-01-31T13:55:02.074Z,98284.22
2023-01-31T13:57:47.223Z,98240.09
2023-01-31T14:00:47.664Z,98290.72
2023-01-31T14:03:17.554Z,98188.38
2023-01-31T14:05:45.146Z,98270.25
2023-01-31T14:08:28.756Z,98289.97
2023-01-31T14:10:57.742Z,98206.28
2023-01-31T14:13:28.683Z,98289.13
2023-01-31T14:15:58.194Z,98258.38
2023-01-31T14:18:42.761Z,98236.44
2023-01-31T14:21:52.175Z,98230.19
2023-01-31T14:24:47.321Z,98282.78
2023-01-31T14:27:29.036Z,98267.56
2023-01-31T14:30:05.179Z,98268.44
2023-01-31T14:32:41.057Z,98170.31
2023-01-31T14:35:13.801Z,98267.09
2023-01-31T14:38:13.135Z,98211.94
2023-01-31T14:40:53.945Z,98216.34
2023-01-31T14:44:02.245Z,98251.72
2023-01-31T14:46:56.381Z,98217.00
2023-01-31T14:49:38.928Z,98219.41
2023-01-31T14:52:35.502Z,98198.50
2023-01-31T14:55:24.034Z,98244.53
2023-01-31T14:57:56.521Z,98250.47
2023-01-31T15:00:36.112Z,98217.34
2023-01-31T15:03:09.097Z,98203.97
2023-01-31T15:05:36.220Z,98247.59
2023-01-31T15:08:09.411Z,98237.91
2023-01-31T15:11:15.202Z,98235.09
2023-01-31T15:13:52.994Z,98209.16
2023-01-31T15:16:35.118Z,98235.53
2023-01-31T15:19:09.549Z,98242.72
2023-01-31T15:21:53.558Z,98241.31
2023-01-31T15:24:49.561Z,98196.81
2023-01-31T15:27:23.577Z,98234.94
2023-01-31T15:30:03.152Z,98237.28
2023-01-31T15:32:41.186Z,98215.31
2023-01-31T15:35:21.070Z,98227.09
2023-01-31T15:38:01.896Z,98226.56
2023-01-31T15:40:29.151Z,98188.38
2023-01-31T15:43:23.378Z,98224.66
2023-01-31T15:45:54.552Z,98167.19
2023-01-31T15:48:23.246Z,98131.75
2023-01-31T15:50:59.103Z,98135.50
2023-01-31T15:53:29.943Z,98203.75
2023-01-31T15:56:03.899Z,98153.50
2023-01-31T15:58:32.228Z,98148.50
2023-01-31T16:01:01.749Z,98116.31
2023-01-31T16:03:35.981Z,98163.69
2023-01-31T16:06:04.016Z,98153.03
2023-01-31T16:08:37.781Z,98203.50
2023-01-31T16:11:09.791Z,98190.03
2023-01-31T16:13:41.671Z,98220.22
2023-01-31T16:16:10.875Z,98191.84
2023-01-31T16:18:38.770Z,98200.66
2023-01-31T16:21:22.217Z,98121.00
2023-01-31T16:23:57.990Z,98200.91
2023-01-31T16:26:29.548Z,98194.34
2023-01-31T16:29:02.485Z,98136.47
2023-01-31T16:31:37.530Z,98155.03
2023-01-31T16:34:18.919Z,98196.56
2023-01-31T16:36:56.628Z,98185.69
2023-01-31T16:39:38.382Z,98141.47
2023-01-31T16:42:22.403Z,98199.22
2023-01-31T16:44:50.423Z,98196.88
2023-01-31T16:47:52.020Z,98155.88
2023-01-31T16:50:32.761Z,98200.22
2023-01-31T16:53:27.991Z,98210.88
2023-01-31T16:56:16.986Z,98192.38
2023-01-31T16:58:53.695Z,98192.38
2023-01-31T17:01:25.056Z,98201.34
2023-01-31T17:04:06.064Z,98200.66
2023-01-31T17:06:33.968Z,98192.53
2023-01-31T17:09:01.700Z,98191.84
2023-01-31T17:11:42.312Z,98157.44
2023-01-31T17:14:10.830Z,98175.94
2023-01-31T17:16:37.841Z,98143.06
2023-01-31T17:19:04.964Z,98156.41
2023-01-31T17:21:38.985Z,98183.16
2023-01-31T17:24:06.361Z,98122.78
2023-01-31T17:26:33.567Z,98170.63
2023-01-31T17:29:02.290Z,98164.16
2023-01-31T17:31:31.692Z,98149.69
2023-01-31T17:33:58.925Z,98166.66
2023-01-31T17:36:26.101Z,98129.31
2023-01-31T17:38:54.246Z,98158.34
2023-01-31T17:41:24.860Z,98163.09
2023-01-31T17:43:52.053Z,98168.09
2023-01-31T17:46:20.147Z,98087.88
2023-01-31T17:48:47.323Z,98097.91
2023-01-31T17:51:15.025Z,98075.19
2023-01-31T17:53:49.992Z,98131.22
2023-01-31T17:56:18.799Z,98134.81
2023-01-31T17:58:46.089Z,98107.34
2023-01-31T18:01:14.576Z,98034.28
2023-01-31T18:03:42.597Z,98134.50
2023-01-31T18:06:10.435Z,98127.97
2023-01-31T18:08:37.860Z,98137.59
2023-01-31T18:11:12.593Z,98090.47
2023-01-31T18:13:40.057Z,98065.31
2023-01-31T18:16:15.930Z,98108.34
2023-01-31T18:18:46.536Z,98045.38
2023-01-31T18:21:17.337Z,98039.94
2023-01-31T18:23:49.002Z,98107.53
2023-01-31T18:26:17.972Z,98046.31
2023-01-31T18:28:46.590Z,98108.72
2023-01-31T18:31:16.062Z,98033.41
2023-01-31T18:33:44.803Z,98096.28
2023-01-31T18:36:15.104Z,98022.03
2023-01-31T18:38:44.203Z,98009.41
2023-01-31T18:41:17.082Z,98023.47
2023-01-31T18:43:44.415Z,98094.00
2023-01-31T18:46:12.763Z,98081.69
2023-01-31T18:48:40.853Z,98075.25
2023-01-31T18:51:10.742Z,98037.81
2023-01-31T18:53:41.983Z,98021.88
2023-01-31T18:56:13.224Z,98001.69
2023-01-31T18:58:41.795Z,98054.94
2023-01-31T19:01:17.770Z,98059.41
2023-01-31T19:03:46.794Z,98058.56
2023-01-31T19:06:17.113Z,98051.75
2023-01-31T19:08:47.858Z,98046.44
2023-01-31T19:11:17.057Z,98040.94
2023-01-31T19:13:44.304Z,98032.81
2023-01-31T19:16:14.632Z,98036.31
2023-01-31T19:18:42.107Z,98030.00
2023-01-31T19:21:21.019Z,98021.50
2023-01-31T19:24:01.290Z,98027.16
2023-01-31T19:26:29.897Z,98021.31
2023-01-31T19:28:58.257Z,98020.34
2023-01-31T19:31:27.249Z,97951.09
2023-01-31T19:33:59.246Z,98014.72
2023-01-31T19:36:34.218Z,98000.88
2023-01-31T19:39:04.689Z,97991.91
2023-01-31T19:41:33.486Z,97996.25
2023-01-31T19:44:01.651Z,98001.59
2023-01-31T19:46:32.333Z,97989.91
2023-01-31T19:49:00.342Z,97993.59
2023-01-31T19:51:28.376Z,97980.59
2023-01-31T19:54:02.432Z,97982.13
2023-01-31T19:56:31.173Z,97980.75
2023-01-31T19:58:58.180Z,97975.59
2023-01-31T20:01:25.685Z,97981.59
2023-01-31T20:03:54.524Z,97979.22
2023-01-31T20:06:25.950Z,97982.59
2023-01-31T20:09:02.291Z,97986.09
2023-01-31T20:11:29.998Z,97981.59
2023-01-31T20:13:58.249Z,97979.91
2023-01-31T20:16:25.467Z,97975.25
2023-01-31T20:18:54.987Z,97985.91
2023-01-31T20:21:22.995Z,97977.63
2023-01-31T20:23:50.662Z,97970.63
2023-01-31T20:26:19.809Z,97978.63
2023-01-31T20:28:46.815Z,97971.75
2023-01-31T20:31:15.627Z,97964.47
2023-01-31T20:33:43.034Z,97967.84
2023-01-31T20:36:10.929Z,97923.25
2023-01-31T20:38:38.919Z,97964.16
2023-01-31T20:41:08.809Z,97963.31
2023-01-31T20:43:36.821Z,97964.00
2023-01-31T20:46:12.421Z,97962.50
2023-01-31T20:48:41.393Z,97943.34
2023-01-31T20:51:11.027Z,97950.84
2023-01-31T20:53:38.181Z,97938.56
2023-01-31T20:56:10.416Z,97933.72
2023-01-31T20:58:40.548Z,97879.97
2023-01-31T21:01:08.607Z,97896.16
2023-01-31T21:03:37.454Z,97914.16
2023-01-31T21:06:04.968Z,97928.06
2023-01-31T21:08:32.329Z,97937.03
2023-01-31T21:11:00.288Z,97922.25
2023-01-31T21:13:31.805Z,97927.22
2023-01-31T21:16:01.952Z,97920.09
2023-01-31T21:18:32.611Z,97922.44
2023-01-31T21:20:59.611Z,97914.63
2023-01-31T21:23:26.863Z,97915.13
2023-01-31T21:25:54.191Z,97907.63
2023-01-31T21:28:25.984Z,97909.81
2023-01-31T21:31:04.851Z,97902.50
2023-01-31T21:33:32.410Z,97901.19
2023-01-31T21:36:00.864Z,97894.88
2023-01-31T21:38:28.784Z,97887.59
2023-01-31T21:41:16.067Z,97896.22
2023-01-31T21:43:43.077Z,97893.75
2023-01-31T21:46:15.145Z,97893.28
2023-01-31T21:48:43.100Z,97878.63
2023-01-31T21:51:13.284Z,97898.13
2023-01-31T21:53:41.787Z,97890.81
2023-01-31T21:56:14.605Z,97898.63
2023-01-31T21:58:42.923Z,97897.66
2023-01-31T22:01:13.390Z,97884.34
2023-01-31T22:03:45.356Z,97898.63
2023-01-31T22:06:14.563Z,97900.47
2023-01-31T22:08:43.087Z,97905.94
2023-01-31T22:11:14.756Z,97901.13
2023-01-31T22:13:51.339Z,97897.59
2023-01-31T22:16:21.373Z,97896.97
2023-01-31T22:18:48.877Z,97844.91
2023-01-31T22:21:19.066Z,97889.97
2023-01-31T22:23:49.127Z,97891.63
2023-01-31T22:26:18.836Z,97889.31
2023-01-31T22:28:46.485Z,97890.94
2023-01-31T22:31:13.542Z,97889.59
2023-01-31T22:33:42.244Z,97888.09
2023-01-31T22:36:11.985Z,97868.09
2023-01-31T22:38:39.026Z,97878.78
2023-01-31T22:41:09.775Z,97881.75
2023-01-31T22:43:38.919Z,97873.59
2023-01-31T22:46:08.313Z,97874.75
2023-01-31T22:48:36.595Z,97873.22
2023-01-31T22:51:07.083Z,97874.28
2023-01-31T22:53:36.364Z,97861.63
2023-01-31T22:56:07.266Z,97854.03
2023-01-31T22:58:34.711Z,97840.72
2023-01-31T23:01:01.954Z,97839.41
2023-01-31T23:03:29.583Z,97832.41
2023-01-31T23:05:57.441Z,97829.41
2023-01-31T23:08:24.246Z,97841.59
2023-01-31T23:10:51.145Z,97851.25
2023-01-31T23:13:17.941Z,97840.44
2023-01-31T23:15:44.752Z,97850.91
2023-01-31T23:18:16.139Z,97855.41
2023-01-31T23:20:43.081Z,97853.75
2023-01-31T23:23:10.858Z,97853.75
2023-01-31T23:25:39.088Z,97853.91
2023-01-31T23:28:06.773Z,97849.56
2023-01-31T23:30:33.687Z,97843.72
2023-01-31T23:33:01.289Z,97849.06
2023-01-31T23:35:28.644Z,97857.66
2023-01-31T23:37:56.039Z,97862.50
2023-01-31T23:40:23.154Z,97858.50
2023-01-31T23:42:50.168Z,97865.66
2023-01-31T23:45:17.093Z,97858.00
2023-01-31T23:47:45.064Z,97849.34
2023-01-31T23:50:12.139Z,97840.69
2023-01-31T23:52:38.985Z,97827.38
2023-01-31T23:55:06.603Z,97833.22
2023-01-31T23:57:33.580Z,97824.25
